sensor_id;sensor_type;location;lat;lon;timestamp;P1;durP1;ratioP1;P2;durP2;ratioP2
19205;SDS011;59358;52.134;5.596;2022-12-18T00:01:14;123.72;;;42.70;;
19205;SDS011;59358;52.134;5.596;2022-12-18T00:03:42;116.57;;;42.80;;
19205;SDS011;59358;52.134;5.596;2022-12-18T00:06:09;119.43;;;42.08;;
19205;SDS011;59358;52.134;5.596;2022-12-18T00:08:36;130.30;;;43.83;;
19205;SDS011;59358;52.134;5.596;2022-12-18T00:11:03;118.20;;;41.88;;
19205;SDS011;59358;52.134;5.596;2022-12-18T00:13:33;125.95;;;44.88;;
19205;SDS011;59358;52.134;5.596;2022-12-18T00:16:01;115.65;;;41.72;;
19205;SDS011;59358;52.134;5.596;2022-12-18T00:18:28;118.70;;;42.13;;
19205;SDS011;59358;52.134;5.596;2022-12-18T00:20:58;114.70;;;39.67;;
19205;SDS011;59358;52.134;5.596;2022-12-18T00:23:25;117.20;;;42.42;;
19205;SDS011;59358;52.134;5.596;2022-12-18T00:25:52;101.53;;;40.45;;
19205;SDS011;59358;52.134;5.596;2022-12-18T00:28:19;125.15;;;43.05;;
19205;SDS011;59358;52.134;5.596;2022-12-18T00:30:47;118.30;;;42.25;;
19205;SDS011;59358;52.134;5.596;2022-12-18T00:33:16;126.10;;;41.45;;
19205;SDS011;59358;52.134;5.596;2022-12-18T00:35:43;117.95;;;41.22;;
19205;SDS011;59358;52.134;5.596;2022-12-18T00:38:10;119.30;;;42.83;;
19205;SDS011;59358;52.134;5.596;2022-12-18T00:40:37;121.18;;;44.03;;
19205;SDS011;59358;52.134;5.596;2022-12-18T00:43:03;118.28;;;41.20;;
19205;SDS011;59358;52.134;5.596;2022-12-18T00:45:29;112.47;;;39.28;;
19205;SDS011;59358;52.134;5.596;2022-12-18T00:47:58;118.63;;;41.75;;
19205;SDS011;59358;52.134;5.596;2022-12-18T00:50:25;122.72;;;42.92;;
19205;SDS011;59358;52.134;5.596;2022-12-18T00:52:52;108.80;;;39.33;;
19205;SDS011;59358;52.134;5.596;2022-12-18T00:55:19;110.50;;;40.22;;
19205;SDS011;59358;52.134;5.596;2022-12-18T00:57:46;115.10;;;40.70;;
19205;SDS011;59358;52.134;5.596;2022-12-18T01:00:13;123.88;;;42.72;;
19205;SDS011;59358;52.134;5.596;2022-12-18T01:02:41;102.60;;;37.15;;
19205;SDS011;59358;52.134;5.596;2022-12-18T01:05:10;102.90;;;37.92;;
19205;SDS011;59358;52.134;5.596;2022-12-18T01:07:38;107.63;;;39.65;;
19205;SDS011;59358;52.134;5.596;2022-12-18T01:10:05;94.18;;;37.08;;
19205;SDS011;59358;52.134;5.596;2022-12-18T01:12:34;102.18;;;38.30;;
19205;SDS011;59358;52.134;5.596;2022-12-18T01:15:00;95.68;;;37.63;;
19205;SDS011;59358;52.134;5.596;2022-12-18T01:17:28;98.80;;;35.13;;
19205;SDS011;59358;52.134;5.596;2022-12-18T01:19:54;100.55;;;37.33;;
19205;SDS011;59358;52.134;5.596;2022-12-18T01:22:25;107.65;;;37.90;;
19205;SDS011;59358;52.134;5.596;2022-12-18T01:24:52;99.65;;;36.35;;
19205;SDS011;59358;52.134;5.596;2022-12-18T01:27:19;89.90;;;34.05;;
19205;SDS011;59358;52.134;5.596;2022-12-18T01:29:47;88.97;;;33.72;;
19205;SDS011;59358;52.134;5.596;2022-12-18T01:32:14;86.28;;;31.88;;
19205;SDS011;59358;52.134;5.596;2022-12-18T01:34:41;96.15;;;35.20;;
19205;SDS011;59358;52.134;5.596;2022-12-18T01:37:08;88.75;;;33.80;;
19205;SDS011;59358;52.134;5.596;2022-12-18T01:39:37;95.88;;;34.67;;
19205;SDS011;59358;52.134;5.596;2022-12-18T01:42:05;89.55;;;32.80;;
19205;SDS011;59358;52.134;5.596;2022-12-18T01:47:31;82.32;;;31.98;;
19205;SDS011;59358;52.134;5.596;2022-12-18T01:50:03;91.70;;;34.35;;
19205;SDS011;59358;52.134;5.596;2022-12-18T01:52:32;91.88;;;34.50;;
19205;SDS011;59358;52.134;5.596;2022-12-18T01:55:03;95.10;;;34.28;;
19205;SDS011;59358;52.134;5.596;2022-12-18T01:57:32;89.80;;;32.92;;
19205;SDS011;59358;52.134;5.596;2022-12-18T01:59:59;92.75;;;35.53;;
19205;SDS011;59358;52.134;5.596;2022-12-18T02:02:28;98.75;;;35.28;;
19205;SDS011;59358;52.134;5.596;2022-12-18T02:04:55;80.32;;;32.95;;
19205;SDS011;59358;52.134;5.596;2022-12-18T02:07:24;82.00;;;35.42;;
19205;SDS011;59358;52.134;5.596;2022-12-18T02:09:58;81.20;;;31.80;;
19205;SDS011;59358;52.134;5.596;2022-12-18T02:12:30;88.88;;;33.03;;
19205;SDS011;59358;52.134;5.596;2022-12-18T02:15:09;86.90;;;30.52;;
19205;SDS011;59358;52.134;5.596;2022-12-18T02:17:42;78.45;;;32.38;;
19205;SDS011;59358;52.134;5.596;2022-12-18T02:20:14;86.80;;;33.72;;
19205;SDS011;59358;52.134;5.596;2022-12-18T02:22:49;83.90;;;31.35;;
19205;SDS011;59358;52.134;5.596;2022-12-18T02:25:35;82.78;;;33.30;;
19205;SDS011;59358;52.134;5.596;2022-12-18T02:28:11;77.03;;;29.95;;
19205;SDS011;59358;52.134;5.596;2022-12-18T02:30:41;82.78;;;32.47;;
19205;SDS011;59358;52.134;5.596;2022-12-18T02:33:10;76.22;;;29.75;;
19205;SDS011;59358;52.134;5.596;2022-12-18T02:35:38;82.82;;;32.60;;
19205;SDS011;59358;52.134;5.596;2022-12-18T02:38:07;82.07;;;31.30;;
19205;SDS011;59358;52.134;5.596;2022-12-18T02:40:35;77.95;;;30.75;;
19205;SDS011;59358;52.134;5.596;2022-12-18T02:43:07;77.22;;;30.15;;
19205;SDS011;59358;52.134;5.596;2022-12-18T02:45:35;85.93;;;32.45;;
19205;SDS011;59358;52.134;5.596;2022-12-18T02:48:11;85.72;;;31.65;;
19205;SDS011;59358;52.134;5.596;2022-12-18T02:50:40;83.90;;;31.75;;
19205;SDS011;59358;52.134;5.596;2022-12-18T02:53:13;78.40;;;31.42;;
19205;SDS011;59358;52.134;5.596;2022-12-18T02:55:48;83.18;;;32.30;;
19205;SDS011;59358;52.134;5.596;2022-12-18T02:58:26;90.93;;;33.15;;
19205;SDS011;59358;52.134;5.596;2022-12-18T03:00:59;83.20;;;31.65;;
19205;SDS011;59358;52.134;5.596;2022-12-18T03:03:31;75.40;;;32.33;;
19205;SDS011;59358;52.134;5.596;2022-12-18T03:06:03;81.68;;;32.05;;
19205;SDS011;59358;52.134;5.596;2022-12-18T03:08:36;75.85;;;28.90;;
19205;SDS011;59358;52.134;5.596;2022-12-18T03:11:06;86.03;;;31.27;;
19205;SDS011;59358;52.134;5.596;2022-12-18T03:13:36;79.75;;;29.23;;
19205;SDS011;59358;52.134;5.596;2022-12-18T03:16:09;72.85;;;29.17;;
19205;SDS011;59358;52.134;5.596;2022-12-18T03:18:38;75.60;;;27.50;;
19205;SDS011;59358;52.134;5.596;2022-12-18T03:21:10;76.57;;;29.38;;
19205;SDS011;59358;52.134;5.596;2022-12-18T03:23:40;78.82;;;30.02;;
19205;SDS011;59358;52.134;5.596;2022-12-18T03:26:11;63.17;;;25.77;;
19205;SDS011;59358;52.134;5.596;2022-12-18T03:28:43;65.72;;;27.55;;
19205;SDS011;59358;52.134;5.596;2022-12-18T03:31:15;67.60;;;27.70;;
19205;SDS011;59358;52.134;5.596;2022-12-18T03:33:44;69.53;;;28.65;;
19205;SDS011;59358;52.134;5.596;2022-12-18T03:36:13;66.75;;;25.73;;
19205;SDS011;59358;52.134;5.596;2022-12-18T03:38:40;65.03;;;26.30;;
19205;SDS011;59358;52.134;5.596;2022-12-18T03:41:09;62.47;;;26.98;;
19205;SDS011;59358;52.134;5.596;2022-12-18T03:43:43;63.60;;;27.15;;
19205;SDS011;59358;52.134;5.596;2022-12-18T03:46:17;66.72;;;27.05;;
19205;SDS011;59358;52.134;5.596;2022-12-18T03:48:52;68.45;;;27.77;;
19205;SDS011;59358;52.134;5.596;2022-12-18T03:51:26;68.07;;;26.92;;
19205;SDS011;59358;52.134;5.596;2022-12-18T03:53:57;57.20;;;25.98;;
19205;SDS011;59358;52.134;5.596;2022-12-18T03:56:26;76.20;;;27.92;;
19205;SDS011;59358;52.134;5.596;2022-12-18T03:58:56;63.40;;;28.02;;
19205;SDS011;59358;52.134;5.596;2022-12-18T04:01:28;65.05;;;27.25;;
19205;SDS011;59358;52.134;5.596;2022-12-18T04:03:58;70.72;;;29.23;;
19205;SDS011;59358;52.134;5.596;2022-12-18T04:06:26;71.35;;;29.73;;
19205;SDS011;59358;52.134;5.596;2022-12-18T04:08:56;59.92;;;27.98;;
19205;SDS011;59358;52.134;5.596;2022-12-18T04:11:24;67.95;;;28.90;;
19205;SDS011;59358;52.134;5.596;2022-12-18T04:13:53;70.13;;;29.35;;
19205;SDS011;59358;52.134;5.596;2022-12-18T04:16:21;66.13;;;27.05;;
19205;SDS011;59358;52.134;5.596;2022-12-18T04:18:49;72.43;;;29.13;;
19205;SDS011;59358;52.134;5.596;2022-12-18T04:21:16;74.95;;;29.45;;
19205;SDS011;59358;52.134;5.596;2022-12-18T04:23:43;66.63;;;27.60;;
19205;SDS011;59358;52.134;5.596;2022-12-18T04:26:10;62.35;;;27.60;;
19205;SDS011;59358;52.134;5.596;2022-12-18T04:28:37;64.00;;;26.27;;
19205;SDS011;59358;52.134;5.596;2022-12-18T04:31:04;56.22;;;26.63;;
19205;SDS011;59358;52.134;5.596;2022-12-18T04:33:31;57.28;;;26.02;;
19205;SDS011;59358;52.134;5.596;2022-12-18T04:35:59;67.22;;;27.20;;
19205;SDS011;59358;52.134;5.596;2022-12-18T04:38:26;61.00;;;26.27;;
19205;SDS011;59358;52.134;5.596;2022-12-18T04:40:52;59.00;;;24.95;;
19205;SDS011;59358;52.134;5.596;2022-12-18T04:43:19;61.67;;;25.60;;
19205;SDS011;59358;52.134;5.596;2022-12-18T04:45:46;62.05;;;25.63;;
19205;SDS011;59358;52.134;5.596;2022-12-18T04:48:13;56.03;;;25.55;;
19205;SDS011;59358;52.134;5.596;2022-12-18T04:50:40;61.20;;;25.45;;
19205;SDS011;59358;52.134;5.596;2022-12-18T04:53:08;59.58;;;25.90;;
19205;SDS011;59358;52.134;5.596;2022-12-18T04:55:35;52.72;;;22.42;;
19205;SDS011;59358;52.134;5.596;2022-12-18T04:58:02;51.28;;;23.25;;
19205;SDS011;59358;52.134;5.596;2022-12-18T05:00:29;51.58;;;23.73;;
19205;SDS011;59358;52.134;5.596;2022-12-18T05:02:56;46.33;;;22.15;;
19205;SDS011;59358;52.134;5.596;2022-12-18T05:05:23;53.60;;;24.45;;
19205;SDS011;59358;52.134;5.596;2022-12-18T05:07:50;50.33;;;22.42;;
19205;SDS011;59358;52.134;5.596;2022-12-18T05:10:18;46.40;;;22.40;;
19205;SDS011;59358;52.134;5.596;2022-12-18T05:12:45;52.45;;;22.15;;
19205;SDS011;59358;52.134;5.596;2022-12-18T05:15:27;44.78;;;21.15;;
19205;SDS011;59358;52.134;5.596;2022-12-18T05:17:58;53.28;;;23.05;;
19205;SDS011;59358;52.134;5.596;2022-12-18T05:20:25;42.88;;;20.65;;
19205;SDS011;59358;52.134;5.596;2022-12-18T05:22:53;45.83;;;21.83;;
19205;SDS011;59358;52.134;5.596;2022-12-18T05:25:22;42.47;;;20.30;;
19205;SDS011;59358;52.134;5.596;2022-12-18T05:27:49;47.90;;;21.90;;
19205;SDS011;59358;52.134;5.596;2022-12-18T05:30:16;50.95;;;21.17;;
19205;SDS011;59358;52.134;5.596;2022-12-18T05:32:43;42.22;;;18.75;;
19205;SDS011;59358;52.134;5.596;2022-12-18T05:35:10;44.35;;;19.83;;
19205;SDS011;59358;52.134;5.596;2022-12-18T05:37:37;43.13;;;20.58;;
19205;SDS011;59358;52.134;5.596;2022-12-18T05:40:04;43.83;;;21.15;;
19205;SDS011;59358;52.134;5.596;2022-12-18T05:42:33;43.53;;;20.80;;
19205;SDS011;59358;52.134;5.596;2022-12-18T05:45:00;44.35;;;19.98;;
19205;SDS011;59358;52.134;5.596;2022-12-18T05:47:27;48.75;;;22.20;;
19205;SDS011;59358;52.134;5.596;2022-12-18T05:49:54;42.60;;;19.73;;
19205;SDS011;59358;52.134;5.596;2022-12-18T05:52:21;46.03;;;20.83;;
19205;SDS011;59358;52.134;5.596;2022-12-18T05:54:48;45.75;;;20.50;;
19205;SDS011;59358;52.134;5.596;2022-12-18T05:57:15;41.95;;;19.65;;
19205;SDS011;59358;52.134;5.596;2022-12-18T05:59:43;40.92;;;19.45;;
19205;SDS011;59358;52.134;5.596;2022-12-18T06:02:10;46.75;;;21.88;;
19205;SDS011;59358;52.134;5.596;2022-12-18T06:04:37;49.72;;;21.10;;
19205;SDS011;59358;52.134;5.596;2022-12-18T06:07:04;45.67;;;21.30;;
19205;SDS011;59358;52.134;5.596;2022-12-18T06:09:31;42.53;;;20.77;;
19205;SDS011;59358;52.134;5.596;2022-12-18T06:11:58;48.33;;;23.05;;
19205;SDS011;59358;52.134;5.596;2022-12-18T06:16:52;41.65;;;21.30;;
19205;SDS011;59358;52.134;5.596;2022-12-18T06:19:19;42.42;;;21.23;;
19205;SDS011;59358;52.134;5.596;2022-12-18T06:21:46;40.53;;;21.10;;
19205;SDS011;59358;52.134;5.596;2022-12-18T06:24:14;44.55;;;20.80;;
19205;SDS011;59358;52.134;5.596;2022-12-18T06:26:41;44.78;;;21.60;;
19205;SDS011;59358;52.134;5.596;2022-12-18T06:29:07;52.05;;;23.58;;
19205;SDS011;59358;52.134;5.596;2022-12-18T06:31:34;55.38;;;22.92;;
19205;SDS011;59358;52.134;5.596;2022-12-18T06:34:03;47.58;;;23.30;;
19205;SDS011;59358;52.134;5.596;2022-12-18T06:36:30;50.20;;;22.73;;
19205;SDS011;59358;52.134;5.596;2022-12-18T06:38:58;49.15;;;22.08;;
19205;SDS011;59358;52.134;5.596;2022-12-18T06:41:25;41.08;;;20.90;;
19205;SDS011;59358;52.134;5.596;2022-12-18T06:43:52;47.03;;;21.85;;
19205;SDS011;59358;52.134;5.596;2022-12-18T06:46:19;45.35;;;21.25;;
19205;SDS011;59358;52.134;5.596;2022-12-18T06:48:46;38.05;;;19.83;;
19205;SDS011;59358;52.134;5.596;2022-12-18T06:51:17;40.38;;;19.63;;
19205;SDS011;59358;52.134;5.596;2022-12-18T06:53:45;44.13;;;20.05;;
19205;SDS011;59358;52.134;5.596;2022-12-18T06:56:12;42.55;;;20.00;;
19205;SDS011;59358;52.134;5.596;2022-12-18T06:58:39;45.50;;;18.98;;
19205;SDS011;59358;52.134;5.596;2022-12-18T07:01:07;36.67;;;20.05;;
19205;SDS011;59358;52.134;5.596;2022-12-18T07:03:34;38.67;;;19.40;;
19205;SDS011;59358;52.134;5.596;2022-12-18T07:06:02;36.30;;;18.63;;
19205;SDS011;59358;52.134;5.596;2022-12-18T07:08:31;40.33;;;19.85;;
19205;SDS011;59358;52.134;5.596;2022-12-18T07:10:58;41.65;;;19.35;;
19205;SDS011;59358;52.134;5.596;2022-12-18T07:13:25;37.42;;;19.23;;
19205;SDS011;59358;52.134;5.596;2022-12-18T07:15:51;38.13;;;19.08;;
19205;SDS011;59358;52.134;5.596;2022-12-18T07:18:18;35.80;;;18.30;;
19205;SDS011;59358;52.134;5.596;2022-12-18T07:20:45;33.88;;;18.48;;
19205;SDS011;59358;52.134;5.596;2022-12-18T07:23:12;50.15;;;21.50;;
19205;SDS011;59358;52.134;5.596;2022-12-18T07:25:40;42.33;;;19.70;;
19205;SDS011;59358;52.134;5.596;2022-12-18T07:28:07;45.67;;;20.50;;
19205;SDS011;59358;52.134;5.596;2022-12-18T07:30:36;45.72;;;22.17;;
19205;SDS011;59358;52.134;5.596;2022-12-18T07:33:03;45.22;;;21.38;;
19205;SDS011;59358;52.134;5.596;2022-12-18T07:35:30;47.42;;;23.20;;
19205;SDS011;59358;52.134;5.596;2022-12-18T07:37:59;48.88;;;22.08;;
19205;SDS011;59358;52.134;5.596;2022-12-18T07:40:25;44.60;;;21.65;;
19205;SDS011;59358;52.134;5.596;2022-12-18T07:42:53;45.42;;;21.98;;
19205;SDS011;59358;52.134;5.596;2022-12-18T07:45:20;43.42;;;21.90;;
19205;SDS011;59358;52.134;5.596;2022-12-18T07:47:47;46.85;;;22.52;;
19205;SDS011;59358;52.134;5.596;2022-12-18T07:50:14;47.20;;;22.95;;
19205;SDS011;59358;52.134;5.596;2022-12-18T07:52:41;47.95;;;24.48;;
19205;SDS011;59358;52.134;5.596;2022-12-18T07:55:08;50.40;;;24.20;;
19205;SDS011;59358;52.134;5.596;2022-12-18T07:57:35;54.50;;;24.35;;
19205;SDS011;59358;52.134;5.596;2022-12-18T08:00:03;56.67;;;25.70;;
19205;SDS011;59358;52.134;5.596;2022-12-18T08:02:31;55.28;;;26.27;;
19205;SDS011;59358;52.134;5.596;2022-12-18T08:04:57;50.45;;;24.23;;
19205;SDS011;59358;52.134;5.596;2022-12-18T08:07:24;49.33;;;25.13;;
19205;SDS011;59358;52.134;5.596;2022-12-18T08:09:51;57.50;;;26.83;;
19205;SDS011;59358;52.134;5.596;2022-12-18T08:12:18;56.70;;;26.90;;
19205;SDS011;59358;52.134;5.596;2022-12-18T08:14:45;47.72;;;24.30;;
19205;SDS011;59358;52.134;5.596;2022-12-18T08:17:13;51.42;;;25.20;;
19205;SDS011;59358;52.134;5.596;2022-12-18T08:19:39;55.10;;;26.02;;
19205;SDS011;59358;52.134;5.596;2022-12-18T08:22:06;47.53;;;25.00;;
19205;SDS011;59358;52.134;5.596;2022-12-18T08:24:33;47.13;;;22.83;;
19205;SDS011;59358;52.134;5.596;2022-12-18T08:27:00;39.03;;;21.83;;
19205;SDS011;59358;52.134;5.596;2022-12-18T08:29:26;45.28;;;22.70;;
19205;SDS011;59358;52.134;5.596;2022-12-18T08:31:53;43.80;;;22.08;;
19205;SDS011;59358;52.134;5.596;2022-12-18T08:34:21;44.53;;;22.80;;
19205;SDS011;59358;52.134;5.596;2022-12-18T08:36:48;36.10;;;20.65;;
19205;SDS011;59358;52.134;5.596;2022-12-18T08:39:15;40.15;;;21.05;;
19205;SDS011;59358;52.134;5.596;2022-12-18T08:41:42;38.63;;;20.90;;
19205;SDS011;59358;52.134;5.596;2022-12-18T08:44:29;37.80;;;19.45;;
19205;SDS011;59358;52.134;5.596;2022-12-18T08:47:03;38.15;;;19.77;;
19205;SDS011;59358;52.134;5.596;2022-12-18T08:49:32;39.53;;;18.95;;
19205;SDS011;59358;52.134;5.596;2022-12-18T08:51:59;33.78;;;18.13;;
19205;SDS011;59358;52.134;5.596;2022-12-18T08:54:28;33.53;;;18.50;;
19205;SDS011;59358;52.134;5.596;2022-12-18T08:56:55;34.17;;;17.30;;
19205;SDS011;59358;52.134;5.596;2022-12-18T08:59:22;36.92;;;18.88;;
19205;SDS011;59358;52.134;5.596;2022-12-18T09:01:49;30.48;;;16.85;;
19205;SDS011;59358;52.134;5.596;2022-12-18T09:04:16;38.15;;;17.70;;
19205;SDS011;59358;52.134;5.596;2022-12-18T09:06:44;36.08;;;17.75;;
19205;SDS011;59358;52.134;5.596;2022-12-18T09:09:11;30.60;;;17.52;;
19205;SDS011;59358;52.134;5.596;2022-12-18T09:11:38;26.45;;;15.27;;
19205;SDS011;59358;52.134;5.596;2022-12-18T09:14:05;29.95;;;16.17;;
19205;SDS011;59358;52.134;5.596;2022-12-18T09:16:33;33.95;;;16.88;;
19205;SDS011;59358;52.134;5.596;2022-12-18T09:19:01;27.90;;;15.05;;
19205;SDS011;59358;52.134;5.596;2022-12-18T09:21:30;29.42;;;16.40;;
19205;SDS011;59358;52.134;5.596;2022-12-18T09:23:59;30.88;;;15.23;;
19205;SDS011;59358;52.134;5.596;2022-12-18T09:26:26;33.38;;;16.65;;
19205;SDS011;59358;52.134;5.596;2022-12-18T09:28:53;30.40;;;16.10;;
19205;SDS011;59358;52.134;5.596;2022-12-18T09:31:22;31.05;;;15.93;;
19205;SDS011;59358;52.134;5.596;2022-12-18T09:33:49;24.15;;;14.25;;
19205;SDS011;59358;52.134;5.596;2022-12-18T09:36:17;27.58;;;15.45;;
19205;SDS011;59358;52.134;5.596;2022-12-18T09:38:44;29.08;;;14.52;;
19205;SDS011;59358;52.134;5.596;2022-12-18T09:41:19;24.67;;;14.30;;
19205;SDS011;59358;52.134;5.596;2022-12-18T09:44:00;27.70;;;15.63;;
19205;SDS011;59358;52.134;5.596;2022-12-18T09:46:32;24.88;;;14.27;;
19205;SDS011;59358;52.134;5.596;2022-12-18T09:49:05;27.55;;;15.85;;
19205;SDS011;59358;52.134;5.596;2022-12-18T09:51:39;26.58;;;13.82;;
19205;SDS011;59358;52.134;5.596;2022-12-18T09:54:11;26.60;;;13.75;;
19205;SDS011;59358;52.134;5.596;2022-12-18T09:56:43;23.55;;;14.13;;
19205;SDS011;59358;52.134;5.596;2022-12-18T09:59:14;24.00;;;12.75;;
19205;SDS011;59358;52.134;5.596;2022-12-18T10:01:47;22.05;;;13.40;;
19205;SDS011;59358;52.134;5.596;2022-12-18T10:04:14;24.95;;;12.77;;
19205;SDS011;59358;52.134;5.596;2022-12-18T10:06:42;23.67;;;12.02;;
19205;SDS011;59358;52.134;5.596;2022-12-18T10:09:18;22.42;;;12.45;;
19205;SDS011;59358;52.134;5.596;2022-12-18T10:11:53;21.23;;;11.98;;
19205;SDS011;59358;52.134;5.596;2022-12-18T10:14:30;20.55;;;12.32;;
19205;SDS011;59358;52.134;5.596;2022-12-18T10:17:05;21.30;;;12.25;;
19205;SDS011;59358;52.134;5.596;2022-12-18T10:19:40;26.02;;;12.43;;
19205;SDS011;59358;52.134;5.596;2022-12-18T10:22:17;25.50;;;13.40;;
19205;SDS011;59358;52.134;5.596;2022-12-18T10:24:55;21.77;;;11.63;;
19205;SDS011;59358;52.134;5.596;2022-12-18T10:27:30;22.10;;;11.93;;
19205;SDS011;59358;52.134;5.596;2022-12-18T10:29:57;22.75;;;12.38;;
19205;SDS011;59358;52.134;5.596;2022-12-18T10:32:27;21.40;;;12.45;;
19205;SDS011;59358;52.134;5.596;2022-12-18T10:34:56;18.80;;;12.07;;
19205;SDS011;59358;52.134;5.596;2022-12-18T10:37:24;21.55;;;11.23;;
19205;SDS011;59358;52.134;5.596;2022-12-18T10:40:07;18.77;;;10.95;;
19205;SDS011;59358;52.134;5.596;2022-12-18T10:42:38;19.98;;;10.70;;
19205;SDS011;59358;52.134;5.596;2022-12-18T10:45:08;19.35;;;10.77;;
19205;SDS011;59358;52.134;5.596;2022-12-18T10:47:41;20.27;;;11.80;;
19205;SDS011;59358;52.134;5.596;2022-12-18T10:50:17;23.13;;;11.38;;
19205;SDS011;59358;52.134;5.596;2022-12-18T10:52:53;20.38;;;11.50;;
19205;SDS011;59358;52.134;5.596;2022-12-18T10:55:21;19.42;;;11.77;;
19205;SDS011;59358;52.134;5.596;2022-12-18T10:57:49;18.05;;;11.00;;
19205;SDS011;59358;52.134;5.596;2022-12-18T11:00:21;20.77;;;11.45;;
19205;SDS011;59358;52.134;5.596;2022-12-18T11:02:54;20.13;;;11.20;;
19205;SDS011;59358;52.134;5.596;2022-12-18T11:05:31;20.08;;;11.10;;
19205;SDS011;59358;52.134;5.596;2022-12-18T11:07:59;18.95;;;11.15;;
19205;SDS011;59358;52.134;5.596;2022-12-18T11:10:28;17.60;;;10.85;;
19205;SDS011;59358;52.134;5.596;2022-12-18T11:13:10;19.52;;;10.88;;
19205;SDS011;59358;52.134;5.596;2022-12-18T11:15:39;19.50;;;10.93;;
19205;SDS011;59358;52.134;5.596;2022-12-18T11:18:13;21.40;;;12.00;;
19205;SDS011;59358;52.134;5.596;2022-12-18T11:20:43;20.27;;;10.52;;
19205;SDS011;59358;52.134;5.596;2022-12-18T11:23:17;16.90;;;10.43;;
19205;SDS011;59358;52.134;5.596;2022-12-18T11:25:50;20.20;;;11.07;;
19205;SDS011;59358;52.134;5.596;2022-12-18T11:28:35;21.45;;;11.35;;
19205;SDS011;59358;52.134;5.596;2022-12-18T11:31:21;19.73;;;11.35;;
19205;SDS011;59358;52.134;5.596;2022-12-18T11:34:00;18.63;;;10.23;;
19205;SDS011;59358;52.134;5.596;2022-12-18T11:36:32;20.45;;;10.95;;
19205;SDS011;59358;52.134;5.596;2022-12-18T11:39:03;17.42;;;10.60;;
19205;SDS011;59358;52.134;5.596;2022-12-18T11:41:39;19.23;;;10.60;;
19205;SDS011;59358;52.134;5.596;2022-12-18T11:44:34;20.17;;;11.80;;
19205;SDS011;59358;52.134;5.596;2022-12-18T11:47:07;18.00;;;10.50;;
19205;SDS011;59358;52.134;5.596;2022-12-18T11:49:40;18.42;;;10.93;;
19205;SDS011;59358;52.134;5.596;2022-12-18T11:52:09;17.42;;;9.90;;
19205;SDS011;59358;52.134;5.596;2022-12-18T11:54:43;21.30;;;11.10;;
19205;SDS011;59358;52.134;5.596;2022-12-18T11:57:11;19.38;;;10.50;;
19205;SDS011;59358;52.134;5.596;2022-12-18T11:59:51;20.00;;;11.50;;
19205;SDS011;59358;52.134;5.596;2022-12-18T12:02:32;21.17;;;11.25;;
19205;SDS011;59358;52.134;5.596;2022-12-18T12:05:16;18.60;;;10.95;;
19205;SDS011;59358;52.134;5.596;2022-12-18T12:07:52;18.92;;;11.40;;
19205;SDS011;59358;52.134;5.596;2022-12-18T12:10:25;19.20;;;11.30;;
19205;SDS011;59358;52.134;5.596;2022-12-18T12:13:05;21.45;;;11.02;;
19205;SDS011;59358;52.134;5.596;2022-12-18T12:15:45;21.33;;;11.82;;
19205;SDS011;59358;52.134;5.596;2022-12-18T12:18:22;19.10;;;11.27;;
19205;SDS011;59358;52.134;5.596;2022-12-18T12:20:58;20.40;;;12.07;;
19205;SDS011;59358;52.134;5.596;2022-12-18T12:23:33;18.40;;;10.63;;
19205;SDS011;59358;52.134;5.596;2022-12-18T12:26:08;21.10;;;11.25;;
19205;SDS011;59358;52.134;5.596;2022-12-18T12:28:45;24.25;;;11.85;;
19205;SDS011;59358;52.134;5.596;2022-12-18T12:31:27;23.55;;;12.15;;
19205;SDS011;59358;52.134;5.596;2022-12-18T12:34:04;21.50;;;11.60;;
19205;SDS011;59358;52.134;5.596;2022-12-18T12:36:45;18.33;;;10.85;;
19205;SDS011;59358;52.134;5.596;2022-12-18T12:39:27;19.50;;;11.13;;
19205;SDS011;59358;52.134;5.596;2022-12-18T12:41:57;19.55;;;10.82;;
19205;SDS011;59358;52.134;5.596;2022-12-18T12:44:43;20.35;;;11.73;;
19205;SDS011;59358;52.134;5.596;2022-12-18T12:47:15;20.38;;;11.15;;
19205;SDS011;59358;52.134;5.596;2022-12-18T12:49:45;20.67;;;11.38;;
19205;SDS011;59358;52.134;5.596;2022-12-18T12:52:14;18.13;;;10.77;;
19205;SDS011;59358;52.134;5.596;2022-12-18T12:57:42;19.38;;;11.95;;
19205;SDS011;59358;52.134;5.596;2022-12-18T13:00:15;19.92;;;10.95;;
19205;SDS011;59358;52.134;5.596;2022-12-18T13:02:46;21.70;;;12.15;;
19205;SDS011;59358;52.134;5.596;2022-12-18T13:05:18;20.63;;;12.35;;
19205;SDS011;59358;52.134;5.596;2022-12-18T13:07:51;20.52;;;11.85;;
19205;SDS011;59358;52.134;5.596;2022-12-18T13:10:24;21.15;;;12.30;;
19205;SDS011;59358;52.134;5.596;2022-12-18T13:12:57;23.38;;;11.98;;
19205;SDS011;59358;52.134;5.596;2022-12-18T13:15:28;21.33;;;11.30;;
19205;SDS011;59358;52.134;5.596;2022-12-18T13:18:09;20.83;;;11.93;;
19205;SDS011;59358;52.134;5.596;2022-12-18T13:20:41;18.13;;;11.05;;
19205;SDS011;59358;52.134;5.596;2022-12-18T13:23:19;18.60;;;11.35;;
19205;SDS011;59358;52.134;5.596;2022-12-18T13:25:54;21.10;;;11.82;;
19205;SDS011;59358;52.134;5.596;2022-12-18T13:28:22;20.48;;;11.93;;
19205;SDS011;59358;52.134;5.596;2022-12-18T13:31:10;18.52;;;11.10;;
19205;SDS011;59358;52.134;5.596;2022-12-18T13:33:42;19.67;;;11.27;;
19205;SDS011;59358;52.134;5.596;2022-12-18T13:36:14;20.45;;;12.18;;
19205;SDS011;59358;52.134;5.596;2022-12-18T13:48:15;17.70;;;10.95;;
19205;SDS011;59358;52.134;5.596;2022-12-18T13:50:53;15.98;;;11.07;;
19205;SDS011;59358;52.134;5.596;2022-12-18T13:53:24;20.83;;;12.30;;
19205;SDS011;59358;52.134;5.596;2022-12-18T13:55:53;19.58;;;11.70;;
19205;SDS011;59358;52.134;5.596;2022-12-18T13:58:20;18.90;;;10.93;;
19205;SDS011;59358;52.134;5.596;2022-12-18T14:00:48;22.08;;;12.25;;
19205;SDS011;59358;52.134;5.596;2022-12-18T14:03:16;21.42;;;11.45;;
19205;SDS011;59358;52.134;5.596;2022-12-18T14:05:45;19.58;;;12.05;;
19205;SDS011;59358;52.134;5.596;2022-12-18T14:08:19;19.83;;;10.95;;
19205;SDS011;59358;52.134;5.596;2022-12-18T14:10:49;22.65;;;12.00;;
19205;SDS011;59358;52.134;5.596;2022-12-18T14:13:19;22.90;;;12.85;;
19205;SDS011;59358;52.134;5.596;2022-12-18T14:15:54;20.38;;;11.55;;
19205;SDS011;59358;52.134;5.596;2022-12-18T14:18:23;21.65;;;12.60;;
19205;SDS011;59358;52.134;5.596;2022-12-18T14:20:52;19.73;;;11.68;;
19205;SDS011;59358;52.134;5.596;2022-12-18T14:23:29;19.98;;;11.27;;
19205;SDS011;59358;52.134;5.596;2022-12-18T14:25:58;19.08;;;12.15;;
19205;SDS011;59358;52.134;5.596;2022-12-18T14:28:26;20.77;;;12.95;;
19205;SDS011;59358;52.134;5.596;2022-12-18T14:30:53;21.45;;;12.35;;
19205;SDS011;59358;52.134;5.596;2022-12-18T14:33:22;19.58;;;11.75;;
19205;SDS011;59358;52.134;5.596;2022-12-18T14:35:54;25.77;;;12.93;;
19205;SDS011;59358;52.134;5.596;2022-12-18T14:38:29;21.60;;;12.50;;
19205;SDS011;59358;52.134;5.596;2022-12-18T14:40:57;27.00;;;12.32;;
19205;SDS011;59358;52.134;5.596;2022-12-18T14:43:25;22.35;;;12.32;;
19205;SDS011;59358;52.134;5.596;2022-12-18T14:45:52;20.02;;;11.77;;
19205;SDS011;59358;52.134;5.596;2022-12-18T14:48:21;19.75;;;11.95;;
19205;SDS011;59358;52.134;5.596;2022-12-18T14:50:57;24.02;;;12.77;;
19205;SDS011;59358;52.134;5.596;2022-12-18T14:53:31;22.30;;;12.05;;
19205;SDS011;59358;52.134;5.596;2022-12-18T14:56:03;19.90;;;11.93;;